sensor_id;sensor_type;location;lat;lon;timestamp;pressure;altitude;pressure_sealevel;temperature;humidity
14393;BME280;7281;42.678;23.372;2023-03-05T00:01:10;94636.53;;;12.09;45.81
14393;BME280;7281;42.678;23.372;2023-03-05T00:03:37;94633.97;;;12.43;44.86
14393;BME280;7281;42.678;23.372;2023-03-05T00:06:04;94625.25;;;12.09;45.54
14393;BME280;7281;42.678;23.372;2023-03-05T00:08:32;94624.53;;;12.37;44.56
14393;BME280;7281;42.678;23.372;2023-03-05T00:11:01;94623.34;;;12.19;45.41
14393;BME280;7281;42.678;23.372;2023-03-05T00:13:29;94618.31;;;12.23;45.46
14393;BME280;7281;42.678;23.372;2023-03-05T00:15:56;94625.22;;;12.14;45.28
14393;BME280;7281;42.678;23.372;2023-03-05T00:18:23;94618.31;;;12.23;45.26
14393;BME280;7281;42.678;23.372;2023-03-05T00:20:50;94624.38;;;12.23;45.58
14393;BME280;7281;42.678;23.372;2023-03-05T00:23:17;94625.38;;;11.79;46.44
14393;BME280;7281;42.678;23.372;2023-03-05T00:25:43;94624.13;;;12.20;45.69
14393;BME280;7281;42.678;23.372;2023-03-05T00:28:12;94611.56;;;12.12;45.76
14393;BME280;7281;42.678;23.372;2023-03-05T00:30:39;94608.63;;;12.23;45.35
14393;BME280;7281;42.678;23.372;2023-03-05T00:33:07;94602.19;;;11.96;45.59
14393;BME280;7281;42.678;23.372;2023-03-05T00:35:41;94601.06;;;12.12;45.23
14393;BME280;7281;42.678;23.372;2023-03-05T00:38:10;94605.22;;;12.18;45.14
14393;BME280;7281;42.678;23.372;2023-03-05T00:40:39;94606.66;;;12.39;44.55
14393;BME280;7281;42.678;23.372;2023-03-05T00:43:07;94599.44;;;12.21;44.74
14393;BME280;7281;42.678;23.372;2023-03-05T00:45:34;94596.84;;;12.16;44.89
14393;BME280;7281;42.678;23.372;2023-03-05T00:48:02;94593.72;;;12.09;45.21
14393;BME280;7281;42.678;23.372;2023-03-05T00:50:30;94605.56;;;11.38;46.99
14393;BME280;7281;42.678;23.372;2023-03-05T00:52:57;94596.53;;;11.59;46.24
14393;BME280;7281;42.678;23.372;2023-03-05T00:55:24;94588.59;;;11.89;45.51
14393;BME280;7281;42.678;23.372;2023-03-05T00:57:51;94579.75;;;11.75;46.22
14393;BME280;7281;42.678;23.372;2023-03-05T01:00:18;94580.50;;;11.75;46.04
14393;BME280;7281;42.678;23.372;2023-03-05T01:02:45;94589.41;;;11.79;45.73
14393;BME280;7281;42.678;23.372;2023-03-05T01:05:13;94598.34;;;11.73;45.85
14393;BME280;7281;42.678;23.372;2023-03-05T01:07:40;94577.63;;;11.72;45.58
14393;BME280;7281;42.678;23.372;2023-03-05T01:10:07;94576.53;;;11.83;45.59
14393;BME280;7281;42.678;23.372;2023-03-05T01:12:36;94576.16;;;12.04;44.71
14393;BME280;7281;42.678;23.372;2023-03-05T01:15:03;94575.47;;;11.89;45.55
14393;BME280;7281;42.678;23.372;2023-03-05T01:17:31;94559.72;;;11.89;44.61
14393;BME280;7281;42.678;23.372;2023-03-05T01:19:57;94576.13;;;12.09;45.03
14393;BME280;7281;42.678;23.372;2023-03-05T01:22:24;94578.00;;;12.04;44.70
14393;BME280;7281;42.678;23.372;2023-03-05T01:24:51;94560.59;;;11.59;44.96
14393;BME280;7281;42.678;23.372;2023-03-05T01:27:18;94578.13;;;11.84;44.72
14393;BME280;7281;42.678;23.372;2023-03-05T01:29:45;94566.50;;;11.90;44.96
14393;BME280;7281;42.678;23.372;2023-03-05T01:32:12;94570.16;;;11.94;44.96
14393;BME280;7281;42.678;23.372;2023-03-05T01:34:39;94568.28;;;12.04;44.12
14393;BME280;7281;42.678;23.372;2023-03-05T01:37:08;94558.59;;;12.00;44.43
14393;BME280;7281;42.678;23.372;2023-03-05T01:39:35;94559.41;;;11.95;44.04
14393;BME280;7281;42.678;23.372;2023-03-05T01:42:02;94559.63;;;11.99;44.33
14393;BME280;7281;42.678;23.372;2023-03-05T01:44:31;94562.34;;;11.89;44.42
14393;BME280;7281;42.678;23.372;2023-03-05T01:46:58;94561.88;;;11.77;44.41
14393;BME280;7281;42.678;23.372;2023-03-05T01:49:32;94565.41;;;11.42;44.90
14393;BME280;7281;42.678;23.372;2023-03-05T01:52:07;94564.47;;;11.82;43.89
14393;BME280;7281;42.678;23.372;2023-03-05T01:55:02;94563.63;;;11.17;44.96
14393;BME280;7281;42.678;23.372;2023-03-05T01:57:36;94548.16;;;11.21;45.09
14393;BME280;7281;42.678;23.372;2023-03-05T02:00:19;94555.22;;;11.20;44.66
14393;BME280;7281;42.678;23.372;2023-03-05T02:02:49;94563.03;;;11.46;44.32
14393;BME280;7281;42.678;23.372;2023-03-05T02:05:29;94560.34;;;11.56;44.58
14393;BME280;7281;42.678;23.372;2023-03-05T02:07:59;94564.16;;;11.88;43.67
14393;BME280;7281;42.678;23.372;2023-03-05T02:10:28;94561.06;;;11.81;43.85
14393;BME280;7281;42.678;23.372;2023-03-05T02:12:59;94566.91;;;12.12;43.19
14393;BME280;7281;42.678;23.372;2023-03-05T02:15:28;94560.84;;;12.16;43.26
14393;BME280;7281;42.678;23.372;2023-03-05T02:17:55;94553.03;;;12.11;42.93
14393;BME280;7281;42.678;23.372;2023-03-05T02:20:26;94566.81;;;12.27;42.52
14393;BME280;7281;42.678;23.372;2023-03-05T02:22:54;94552.09;;;12.31;42.83
14393;BME280;7281;42.678;23.372;2023-03-05T02:25:27;94565.00;;;12.28;42.67
14393;BME280;7281;42.678;23.372;2023-03-05T02:27:59;94558.94;;;12.27;42.33
14393;BME280;7281;42.678;23.372;2023-03-05T02:30:28;94561.47;;;12.37;42.47
14393;BME280;7281;42.678;23.372;2023-03-05T02:32:54;94563.06;;;12.38;42.30
14393;BME280;7281;42.678;23.372;2023-03-05T02:35:22;94564.88;;;12.04;42.22
14393;BME280;7281;42.678;23.372;2023-03-05T02:37:48;94561.25;;;11.90;42.62
14393;BME280;7281;42.678;23.372;2023-03-05T02:40:16;94560.34;;;11.66;43.02
14393;BME280;7281;42.678;23.372;2023-03-05T02:42:43;94558.25;;;11.58;43.52
14393;BME280;7281;42.678;23.372;2023-03-05T02:45:12;94551.03;;;11.24;43.88
14393;BME280;7281;42.678;23.372;2023-03-05T02:47:39;94562.78;;;12.01;42.58
14393;BME280;7281;42.678;23.372;2023-03-05T02:50:09;94560.47;;;11.94;42.52
14393;BME280;7281;42.678;23.372;2023-03-05T02:52:37;94557.84;;;11.31;43.37
14393;BME280;7281;42.678;23.372;2023-03-05T02:55:10;94574.53;;;11.65;43.50
14393;BME280;7281;42.678;23.372;2023-03-05T02:57:38;94575.06;;;11.52;43.21
14393;BME280;7281;42.678;23.372;2023-03-05T03:00:06;94561.59;;;10.89;44.73
14393;BME280;7281;42.678;23.372;2023-03-05T03:02:33;94563.13;;;11.10;45.02
14393;BME280;7281;42.678;23.372;2023-03-05T03:05:00;94565.94;;;11.39;44.54
14393;BME280;7281;42.678;23.372;2023-03-05T03:07:27;94566.03;;;11.04;45.24
14393;BME280;7281;42.678;23.372;2023-03-05T03:09:54;94560.56;;;10.85;45.29
14393;BME280;7281;42.678;23.372;2023-03-05T03:12:21;94563.69;;;10.82;45.81
14393;BME280;7281;42.678;23.372;2023-03-05T03:14:48;94563.69;;;10.97;45.69
14393;BME280;7281;42.678;23.372;2023-03-05T03:17:16;94571.56;;;10.77;45.54
14393;BME280;7281;42.678;23.372;2023-03-05T03:19:44;94567.13;;;10.78;45.79
14393;BME280;7281;42.678;23.372;2023-03-05T03:22:14;94569.16;;;11.06;45.41
14393;BME280;7281;42.678;23.372;2023-03-05T03:24:42;94570.50;;;10.98;45.11
14393;BME280;7281;42.678;23.372;2023-03-05T03:27:09;94578.91;;;10.40;46.37
14393;BME280;7281;42.678;23.372;2023-03-05T03:29:36;94572.59;;;10.91;45.55
14393;BME280;7281;42.678;23.372;2023-03-05T03:32:03;94584.69;;;10.47;46.03
14393;BME280;7281;42.678;23.372;2023-03-05T03:34:30;94575.78;;;10.18;46.46
14393;BME280;7281;42.678;23.372;2023-03-05T03:36:57;94576.56;;;10.59;45.66
14393;BME280;7281;42.678;23.372;2023-03-05T03:39:24;94573.66;;;10.10;47.08
14393;BME280;7281;42.678;23.372;2023-03-05T03:41:52;94566.69;;;9.59;47.80
14393;BME280;7281;42.678;23.372;2023-03-05T03:44:19;94564.97;;;10.04;47.42
14393;BME280;7281;42.678;23.372;2023-03-05T03:46:48;94567.34;;;9.96;47.55
14393;BME280;7281;42.678;23.372;2023-03-05T03:49:18;94555.09;;;10.52;46.38
14393;BME280;7281;42.678;23.372;2023-03-05T03:51:46;94584.00;;;9.80;46.94
14393;BME280;7281;42.678;23.372;2023-03-05T03:54:14;94569.00;;;10.47;46.07
14393;BME280;7281;42.678;23.372;2023-03-05T03:56:42;94571.84;;;10.66;45.59
14393;BME280;7281;42.678;23.372;2023-03-05T03:59:09;94580.47;;;10.31;46.21
14393;BME280;7281;42.678;23.372;2023-03-05T04:01:36;94573.13;;;10.13;46.61
14393;BME280;7281;42.678;23.372;2023-03-05T04:04:04;94574.44;;;10.20;46.66
14393;BME280;7281;42.678;23.372;2023-03-05T04:06:32;94571.06;;;10.55;45.90
14393;BME280;7281;42.678;23.372;2023-03-05T04:08:59;94573.06;;;9.83;46.89
14393;BME280;7281;42.678;23.372;2023-03-05T04:11:25;94580.41;;;10.06;46.93
14393;BME280;7281;42.678;23.372;2023-03-05T04:13:52;94583.03;;;9.96;46.31
14393;BME280;7281;42.678;23.372;2023-03-05T04:16:22;94576.97;;;9.85;47.18
14393;BME280;7281;42.678;23.372;2023-03-05T04:18:49;94583.09;;;10.26;46.30
14393;BME280;7281;42.678;23.372;2023-03-05T04:21:16;94576.09;;;9.55;47.62
14393;BME280;7281;42.678;23.372;2023-03-05T04:23:42;94574.13;;;9.97;46.61
14393;BME280;7281;42.678;23.372;2023-03-05T04:26:10;94573.09;;;10.03;46.30
14393;BME280;7281;42.678;23.372;2023-03-05T04:28:36;94577.88;;;10.21;46.06
14393;BME280;7281;42.678;23.372;2023-03-05T04:31:04;94572.56;;;10.01;45.87
14393;BME280;7281;42.678;23.372;2023-03-05T04:33:31;94575.44;;;10.04;46.28
14393;BME280;7281;42.678;23.372;2023-03-05T04:35:57;94567.97;;;9.51;47.21
14393;BME280;7281;42.678;23.372;2023-03-05T04:38:24;94568.25;;;9.55;46.99
14393;BME280;7281;42.678;23.372;2023-03-05T04:40:51;94569.31;;;9.59;46.80
14393;BME280;7281;42.678;23.372;2023-03-05T04:43:18;94567.25;;;9.09;47.99
14393;BME280;7281;42.678;23.372;2023-03-05T04:45:45;94571.31;;;9.37;47.39
14393;BME280;7281;42.678;23.372;2023-03-05T04:48:12;94568.97;;;9.40;47.80
14393;BME280;7281;42.678;23.372;2023-03-05T04:50:39;94566.81;;;9.22;47.80
14393;BME280;7281;42.678;23.372;2023-03-05T04:53:06;94560.94;;;9.52;46.96
14393;BME280;7281;42.678;23.372;2023-03-05T04:55:33;94569.25;;;9.39;46.84
14393;BME280;7281;42.678;23.372;2023-03-05T04:58:01;94563.28;;;9.53;46.52
14393;BME280;7281;42.678;23.372;2023-03-05T05:00:28;94570.44;;;9.88;46.35
14393;BME280;7281;42.678;23.372;2023-03-05T05:02:55;94562.59;;;9.83;46.12
14393;BME280;7281;42.678;23.372;2023-03-05T05:05:24;94559.44;;;9.91;46.44
14393;BME280;7281;42.678;23.372;2023-03-05T05:07:56;94570.97;;;9.95;46.12
14393;BME280;7281;42.678;23.372;2023-03-05T05:10:24;94570.47;;;10.03;46.39
14393;BME280;7281;42.678;23.372;2023-03-05T05:12:51;94564.97;;;9.99;46.29
14393;BME280;7281;42.678;23.372;2023-03-05T05:15:18;94564.13;;;9.74;46.23
14393;BME280;7281;42.678;23.372;2023-03-05T05:17:46;94569.16;;;10.05;45.76
14393;BME280;7281;42.678;23.372;2023-03-05T05:20:14;94578.91;;;10.10;45.57
14393;BME280;7281;42.678;23.372;2023-03-05T05:22:42;94578.94;;;10.25;45.20
14393;BME280;7281;42.678;23.372;2023-03-05T05:25:09;94585.19;;;9.37;47.08
14393;BME280;7281;42.678;23.372;2023-03-05T05:27:38;94575.88;;;9.71;46.24
14393;BME280;7281;42.678;23.372;2023-03-05T05:30:06;94580.31;;;9.71;46.42
14393;BME280;7281;42.678;23.372;2023-03-05T05:32:33;94585.97;;;9.38;46.66
14393;BME280;7281;42.678;23.372;2023-03-05T05:35:01;94589.59;;;9.27;46.93
14393;BME280;7281;42.678;23.372;2023-03-05T05:37:28;94587.00;;;9.32;46.80
14393;BME280;7281;42.678;23.372;2023-03-05T05:39:55;94579.41;;;9.30;46.81
14393;BME280;7281;42.678;23.372;2023-03-05T05:42:23;94583.84;;;10.06;45.07
14393;BME280;7281;42.678;23.372;2023-03-05T05:44:50;94589.72;;;9.62;46.08
14393;BME280;7281;42.678;23.372;2023-03-05T05:47:17;94601.75;;;9.58;45.79
14393;BME280;7281;42.678;23.372;2023-03-05T05:49:45;94590.50;;;9.62;45.24
14393;BME280;7281;42.678;23.372;2023-03-05T05:52:12;94588.88;;;10.23;44.41
14393;BME280;7281;42.678;23.372;2023-03-05T05:54:39;94581.56;;;10.45;44.22
14393;BME280;7281;42.678;23.372;2023-03-05T05:57:06;94593.03;;;10.19;44.86
14393;BME280;7281;42.678;23.372;2023-03-05T05:59:33;94596.59;;;9.78;44.95
14393;BME280;7281;42.678;23.372;2023-03-05T06:02:00;94599.97;;;9.73;44.75
14393;BME280;7281;42.678;23.372;2023-03-05T06:04:27;94603.56;;;9.52;45.11
14393;BME280;7281;42.678;23.372;2023-03-05T06:06:54;94599.63;;;9.50;45.35
14393;BME280;7281;42.678;23.372;2023-03-05T06:09:21;94602.91;;;9.25;45.50
14393;BME280;7281;42.678;23.372;2023-03-05T06:11:48;94611.31;;;10.04;44.33
14393;BME280;7281;42.678;23.372;2023-03-05T06:14:15;94608.28;;;9.55;44.18
14393;BME280;7281;42.678;23.372;2023-03-05T06:16:42;94606.50;;;9.71;44.27
14393;BME280;7281;42.678;23.372;2023-03-05T06:19:13;94601.44;;;10.21;43.09
14393;BME280;7281;42.678;23.372;2023-03-05T06:21:40;94602.38;;;9.95;43.63
14393;BME280;7281;42.678;23.372;2023-03-05T06:24:09;94602.91;;;9.92;43.42
14393;BME280;7281;42.678;23.372;2023-03-05T06:26:36;94610.88;;;10.32;42.51
14393;BME280;7281;42.678;23.372;2023-03-05T06:29:03;94613.50;;;10.32;42.64
14393;BME280;7281;42.678;23.372;2023-03-05T06:31:30;94612.47;;;10.48;41.83
14393;BME280;7281;42.678;23.372;2023-03-05T06:33:59;94611.94;;;10.41;41.91
14393;BME280;7281;42.678;23.372;2023-03-05T06:36:29;94605.13;;;10.70;41.30
14393;BME280;7281;42.678;23.372;2023-03-05T06:38:57;94617.44;;;10.55;41.38
14393;BME280;7281;42.678;23.372;2023-03-05T06:41:29;94605.94;;;10.71;41.42
14393;BME280;7281;42.678;23.372;2023-03-05T06:43:58;94618.22;;;10.75;41.75
14393;BME280;7281;42.678;23.372;2023-03-05T06:46:30;94614.00;;;10.49;41.10
14393;BME280;7281;42.678;23.372;2023-03-05T06:48:59;94625.03;;;10.46;41.26
14393;BME280;7281;42.678;23.372;2023-03-05T06:51:33;94619.00;;;10.41;41.25
14393;BME280;7281;42.678;23.372;2023-03-05T06:54:05;94623.97;;;10.62;41.06
14393;BME280;7281;42.678;23.372;2023-03-05T06:56:35;94625.28;;;10.70;40.77
14393;BME280;7281;42.678;23.372;2023-03-05T06:59:02;94626.63;;;10.77;40.67
14393;BME280;7281;42.678;23.372;2023-03-05T07:01:28;94623.44;;;10.40;40.65
14393;BME280;7281;42.678;23.372;2023-03-05T07:03:55;94622.41;;;10.51;40.10
14393;BME280;7281;42.678;23.372;2023-03-05T07:06:26;94624.50;;;10.59;39.93
14393;BME280;7281;42.678;23.372;2023-03-05T07:08:57;94626.06;;;11.00;40.01
14393;BME280;7281;42.678;23.372;2023-03-05T07:11:24;94618.22;;;10.85;40.24
14393;BME280;7281;42.678;23.372;2023-03-05T07:13:51;94619.25;;;10.84;39.21
14393;BME280;7281;42.678;23.372;2023-03-05T07:16:24;94622.41;;;10.86;39.60
14393;BME280;7281;42.678;23.372;2023-03-05T07:18:52;94621.53;;;11.51;39.26
14393;BME280;7281;42.678;23.372;2023-03-05T07:21:21;94619.66;;;11.62;39.15
14393;BME280;7281;42.678;23.372;2023-03-05T07:23:49;94621.84;;;11.35;38.46
14393;BME280;7281;42.678;23.372;2023-03-05T07:26:16;94626.00;;;11.36;38.38
14393;BME280;7281;42.678;23.372;2023-03-05T07:28:43;94608.09;;;11.73;38.17
14393;BME280;7281;42.678;23.372;2023-03-05T07:31:21;94623.34;;;11.56;37.93
14393;BME280;7281;42.678;23.372;2023-03-05T07:33:52;94616.09;;;12.01;38.01
14393;BME280;7281;42.678;23.372;2023-03-05T07:36:21;94616.75;;;11.63;38.38
14393;BME280;7281;42.678;23.372;2023-03-05T07:38:49;94619.81;;;10.56;39.15
14393;BME280;7281;42.678;23.372;2023-03-05T07:41:18;94610.88;;;11.07;39.74
14393;BME280;7281;42.678;23.372;2023-03-05T07:43:47;94625.03;;;10.86;39.23
14393;BME280;7281;42.678;23.372;2023-03-05T07:46:19;94622.88;;;11.34;39.15
14393;BME280;7281;42.678;23.372;2023-03-05T07:48:48;94626.03;;;11.20;39.05
14393;BME280;7281;42.678;23.372;2023-03-05T07:51:17;94618.22;;;10.95;39.41
14393;BME280;7281;42.678;23.372;2023-03-05T07:53:47;94616.59;;;11.35;39.07
14393;BME280;7281;42.678;23.372;2023-03-05T07:56:21;94625.31;;;10.85;40.07
14393;BME280;7281;42.678;23.372;2023-03-05T07:58:49;94625.31;;;10.80;40.30
14393;BME280;7281;42.678;23.372;2023-03-05T08:01:16;94624.25;;;10.91;39.99
14393;BME280;7281;42.678;23.372;2023-03-05T08:03:43;94612.47;;;10.88;40.32
14393;BME280;7281;42.678;23.372;2023-03-05T08:06:11;94623.94;;;11.22;39.50
14393;BME280;7281;42.678;23.372;2023-03-05T08:08:38;94626.59;;;11.07;39.55
14393;BME280;7281;42.678;23.372;2023-03-05T08:11:08;94628.16;;;11.08;40.21
14393;BME280;7281;42.678;23.372;2023-03-05T08:13:35;94621.56;;;11.26;39.80
14393;BME280;7281;42.678;23.372;2023-03-05T08:16:07;94610.28;;;11.31;39.61
14393;BME280;7281;42.678;23.372;2023-03-05T08:18:35;94622.88;;;11.29;39.95
14393;BME280;7281;42.678;23.372;2023-03-05T08:21:02;94628.16;;;10.53;40.85
14393;BME280;7281;42.678;23.372;2023-03-05T08:23:29;94628.72;;;10.75;41.12
14393;BME280;7281;42.678;23.372;2023-03-05T08:25:56;94626.59;;;10.27;41.75
14393;BME280;7281;42.678;23.372;2023-03-05T08:28:23;94625.06;;;10.76;41.31
14393;BME280;7281;42.678;23.372;2023-03-05T08:30:50;94619.75;;;11.27;40.29
14393;BME280;7281;42.678;23.372;2023-03-05T08:33:17;94616.59;;;11.24;40.43
14393;BME280;7281;42.678;23.372;2023-03-05T08:35:44;94616.13;;;10.77;41.46
14393;BME280;7281;42.678;23.372;2023-03-05T08:38:11;94621.91;;;10.94;40.92
14393;BME280;7281;42.678;23.372;2023-03-05T08:40:38;94612.94;;;11.26;40.39
14393;BME280;7281;42.678;23.372;2023-03-05T08:43:05;94617.69;;;10.43;42.13
14393;BME280;7281;42.678;23.372;2023-03-05T08:45:32;94604.56;;;10.23;42.31
14393;BME280;7281;42.678;23.372;2023-03-05T08:47:59;94608.28;;;10.52;42.21
14393;BME280;7281;42.678;23.372;2023-03-05T08:50:26;94605.66;;;10.92;41.39
14393;BME280;7281;42.678;23.372;2023-03-05T08:52:53;94600.63;;;11.11;41.51
14393;BME280;7281;42.678;23.372;2023-03-05T08:55:22;94591.13;;;11.35;40.65
14393;BME280;7281;42.678;23.372;2023-03-05T08:57:49;94587.56;;;10.76;41.47
14393;BME280;7281;42.678;23.372;2023-03-05T09:00:16;94592.03;;;10.50;41.77
14393;BME280;7281;42.678;23.372;2023-03-05T09:02:43;94590.41;;;10.89;40.89
14393;BME280;7281;42.678;23.372;2023-03-05T09:05:10;94587.50;;;11.06;40.33
14393;BME280;7281;42.678;23.372;2023-03-05T09:07:37;94573.06;;;11.18;40.45
14393;BME280;7281;42.678;23.372;2023-03-05T09:10:04;94576.25;;;11.05;40.15
14393;BME280;7281;42.678;23.372;2023-03-05T09:12:31;94583.09;;;10.86;39.76
14393;BME280;7281;42.678;23.372;2023-03-05T09:14:58;94576.16;;;11.46;41.96
14393;BME280;7281;42.678;23.372;2023-03-05T09:17:25;94562.94;;;11.61;38.24
14393;BME280;7281;42.678;23.372;2023-03-05T09:19:52;94566.53;;;11.06;38.75
14393;BME280;7281;42.678;23.372;2023-03-05T09:22:19;94572.97;;;11.49;38.58
14393;BME280;7281;42.678;23.372;2023-03-05T09:24:46;94567.13;;;12.20;38.45
14393;BME280;7281;42.678;23.372;2023-03-05T09:27:13;94571.53;;;11.86;37.30
14393;BME280;7281;42.678;23.372;2023-03-05T09:29:40;94565.13;;;12.02;36.89
14393;BME280;7281;42.678;23.372;2023-03-05T09:32:08;94559.75;;;11.79;38.22
14393;BME280;7281;42.678;23.372;2023-03-05T09:34:35;94558.31;;;11.48;37.05
14393;BME280;7281;42.678;23.372;2023-03-05T09:37:03;94558.72;;;11.80;37.14
14393;BME280;7281;42.678;23.372;2023-03-05T09:39:30;94556.66;;;11.62;36.54
14393;BME280;7281;42.678;23.372;2023-03-05T09:42:24;94562.88;;;11.81;36.13
14393;BME280;7281;42.678;23.372;2023-03-05T09:47:55;94551.28;;;11.97;36.51
14393;BME280;7281;42.678;23.372;2023-03-05T09:50:39;94555.56;;;11.78;36.28
14393;BME280;7281;42.678;23.372;2023-03-05T09:55:50;94544.75;;;11.89;35.63
14393;BME280;7281;42.678;23.372;2023-03-05T10:00:49;94529.47;;;12.30;35.23
14393;BME280;7281;42.678;23.372;2023-03-05T10:03:30;94530.09;;;12.22;34.82
14393;BME280;7281;42.678;23.372;2023-03-05T10:06:43;94527.81;;;13.30;33.57
14393;BME280;7281;42.678;23.372;2023-03-05T10:11:46;94518.34;;;14.08;31.70
14393;BME280;7281;42.678;23.372;2023-03-05T10:14:27;94500.06;;;13.38;32.24
14393;BME280;7281;42.678;23.372;2023-03-05T10:27:49;94490.34;;;13.14;32.10
14393;BME280;7281;42.678;23.372;2023-03-05T10:40:54;94469.56;;;13.92;31.10
14393;BME280;7281;42.678;23.372;2023-03-05T10:46:30;94457.81;;;14.03;30.79
14393;BME280;7281;42.678;23.372;2023-03-05T10:51:57;94469.13;;;13.30;32.03
14393;BME280;7281;42.678;23.372;2023-03-05T10:54:29;94464.75;;;12.96;31.05
14393;BME280;7281;42.678;23.372;2023-03-05T10:57:19;94449.00;;;13.76;30.60
14393;BME280;7281;42.678;23.372;2023-03-05T11:02:21;94440.66;;;14.70;29.54
14393;BME280;7281;42.678;23.372;2023-03-05T11:04:50;94444.53;;;13.95;30.00
14393;BME280;7281;42.678;23.372;2023-03-05T11:10:01;94432.16;;;13.77;30.66
14393;BME280;7281;42.678;23.372;2023-03-05T11:12:37;94430.84;;;12.95;31.66
14393;BME280;7281;42.678;23.372;2023-03-05T11:17:40;94424.00;;;13.17;31.64
14393;BME280;7281;42.678;23.372;2023-03-05T11:20:29;94420.06;;;13.39;31.01
14393;BME280;7281;42.678;23.372;2023-03-05T11:23:14;94414.00;;;14.26;30.44
14393;BME280;7281;42.678;23.372;2023-03-05T11:28:36;94407.50;;;14.51;31.00
14393;BME280;7281;42.678;23.372;2023-03-05T11:31:18;94410.53;;;14.44;31.32
14393;BME280;7281;42.678;23.372;2023-03-05T11:33:54;94410.38;;;14.54;31.88
14393;BME280;7281;42.678;23.372;2023-03-05T11:36:25;94410.38;;;14.95;30.16
14393;BME280;7281;42.678;23.372;2023-03-05T11:41:52;94392.41;;;15.10;29.88
14393;BME280;7281;42.678;23.372;2023-03-05T11:44:29;94386.84;;;14.12;30.04
14393;BME280;7281;42.678;23.372;2023-03-05T11:47:25;94383.09;;;14.45;29.70
14393;BME280;7281;42.678;23.372;2023-03-05T11:50:12;94372.88;;;14.71;29.96
14393;BME280;7281;42.678;23.372;2023-03-05T11:52:46;94371.69;;;14.77;28.76
14393;BME280;7281;42.678;23.372;2023-03-05T11:55:16;94383.94;;;14.27;31.25
14393;BME280;7281;42.678;23.372;2023-03-05T12:00:21;94364.84;;;14.35;29.71
14393;BME280;7281;42.678;23.372;2023-03-05T12:02:52;94350.50;;;14.82;28.86
14393;BME280;7281;42.678;23.372;2023-03-05T12:05:20;94347.09;;;14.54;29.71
14393;BME280;7281;42.678;23.372;2023-03-05T12:07:52;94342.44;;;15.63;29.02
14393;BME280;7281;42.678;23.372;2023-03-05T12:10:22;94341.19;;;15.11;29.28
14393;BME280;7281;42.678;23.372;2023-03-05T12:18:47;94337.78;;;14.97;28.95
14393;BME280;7281;42.678;23.372;2023-03-05T12:24:00;94319.72;;;15.62;27.96
14393;BME280;7281;42.678;23.372;2023-03-05T12:29:41;94328.56;;;15.58;27.97
14393;BME280;7281;42.678;23.372;2023-03-05T12:35:23;94313.81;;;16.40;28.15
14393;BME280;7281;42.678;23.372;2023-03-05T12:43:32;94298.13;;;16.13;28.42
14393;BME280;7281;42.678;23.372;2023-03-05T12:46:28;94304.53;;;15.46;28.12
14393;BME280;7281;42.678;23.372;2023-03-05T12:48:58;94302.34;;;16.14;27.79
14393;BME280;7281;42.678;23.372;2023-03-05T12:51:31;94304.09;;;16.49;27.50
14393;BME280;7281;42.678;23.372;2023-03-05T12:54:35;94298.88;;;16.83;27.33
14393;BME280;7281;42.678;23.372;2023-03-05T12:57:14;94294.44;;;17.09;26.90
14393;BME280;7281;42.678;23.372;2023-03-05T12:59:47;94289.78;;;17.58;27.06
14393;BME280;7281;42.678;23.372;2023-03-05T13:02:54;94275.13;;;17.69;26.17
14393;BME280;7281;42.678;23.372;2023-03-05T13:05:28;94294.91;;;17.29;26.85
14393;BME280;7281;42.678;23.372;2023-03-05T13:08:28;94295.78;;;16.90;27.10
14393;BME280;7281;42.678;23.372;2023-03-05T13:11:05;94288.03;;;17.10;27.32
14393;BME280;7281;42.678;23.372;2023-03-05T13:13:37;94290.63;;;15.76;27.31
14393;BME280;7281;42.678;23.372;2023-03-05T13:16:23;94278.97;;;15.77;27.82
14393;BME280;7281;42.678;23.372;2023-03-05T13:18:52;94306.03;;;15.60;28.19
14393;BME280;7281;42.678;23.372;2023-03-05T13:21:24;94287.47;;;15.65;28.19
14393;BME280;7281;42.678;23.372;2023-03-05T13:23:54;94291.91;;;15.20;28.18
14393;BME280;7281;42.678;23.372;2023-03-05T13:26:31;94290.34;;;15.19;28.74
14393;BME280;7281;42.678;23.372;2023-03-05T13:29:16;94293.00;;;14.30;29.50
14393;BME280;7281;42.678;23.372;2023-03-05T13:31:46;94291.31;;;15.23;31.11
14393;BME280;7281;42.678;23.372;2023-03-05T13:34:25;94295.91;;;14.82;29.13
14393;BME280;7281;42.678;23.372;2023-03-05T13:37:18;94299.66;;;14.54;29.02
14393;BME280;7281;42.678;23.372;2023-03-05T13:42:22;94271.78;;;15.47;27.96
14393;BME280;7281;42.678;23.372;2023-03-05T13:44:58;94277.50;;;14.91;28.85
14393;BME280;7281;42.678;23.372;2023-03-05T13:47:30;94286.13;;;14.69;29.32
14393;BME280;7281;42.678;23.372;2023-03-05T13:50:00;94294.69;;;15.02;28.59
14393;BME280;7281;42.678;23.372;2023-03-05T13:52:30;94281.09;;;14.59;29.41
14393;BME280;7281;42.678;23.372;2023-03-05T13:54:58;94296.44;;;15.06;28.76
14393;BME280;7281;42.678;23.372;2023-03-05T13:57:39;94295.16;;;15.40;28.71
14393;BME280;7281;42.678;23.372;2023-03-05T14:02:52;94284.69;;;15.70;28.25
14393;BME280;7281;42.678;23.372;2023-03-05T14:05:20;94274.03;;;15.84;28.25
14393;BME280;7281;42.678;23.372;2023-03-05T14:07:49;94285.06;;;15.19;28.79
14393;BME280;7281;42.678;23.372;2023-03-05T14:10:46;94274.66;;;15.59;28.62
14393;BME280;7281;42.678;23.372;2023-03-05T14:13:18;94256.66;;;15.61;27.92
14393;BME280;7281;42.678;23.372;2023-03-05T14:16:24;94280.78;;;15.68;28.51
14393;BME280;7281;42.678;23.372;2023-03-05T14:18:53;94278.97;;;15.33;27.82
14393;BME280;7281;42.678;23.372;2023-03-05T14:21:20;94286.50;;;15.03;28.07
14393;BME280;7281;42.678;23.372;2023-03-05T14:23:50;94275.94;;;15.03;27.86
14393;BME280;7281;42.678;23.372;2023-03-05T14:26:29;94289.66;;;15.50;28.19
14393;BME280;7281;42.678;23.372;2023-03-05T14:29:02;94288.31;;;15.39;28.53
14393;BME280;7281;42.678;23.372;2023-03-05T14:31:34;94279.16;;;15.36;28.27
14393;BME280;7281;42.678;23.372;2023-03-05T14:34:04;94286.28;;;15.36;27.93
14393;BME280;7281;42.678;23.372;2023-03-05T14:36:34;94282.31;;;15.24;29.24
14393;BME280;7281;42.678;23.372;2023-03-05T14:39:02;94269.97;;;14.35;30.82